FW4778 Weather Reports


Display with metric or nautical units.
time (UTC)temp
F
wind
direction
speed
MPH
gust
MPH
rain 1hr
in
rain 24hr
in
rain mn
in
humidity
%
barometer
mb
20210920010245 55 148 0.0 0.0 0.00 0.00 0.00 91 1017.1
20210920005242 55 148 0.0 0.0 0.00 0.00 0.00 91 1017.0
20210920004242 55 148 0.0 0.0 0.00 0.00 0.00 91 1017.1
20210920003250 55 148 0.0 1.0 0.00 0.00 0.00 91 1017.0
20210920002242 55 148 0.0 0.0 0.00 0.00 0.00 90 1017.1
20210920001226 55 148 0.0 0.0 0.00 0.00 0.00 90 1017.1
20210920000227 55 148 0.0 0.0 0.00 0.00 0.00 90 1017.1
20210919235236 56 148 0.0 0.0 0.00 0.00 0.00 90 1017.1
20210919234235 56 148 0.0 0.0 0.00 0.00 0.00 90 1017.2
20210919233235 56 148 0.0 0.0 0.00 0.00 0.00 89 1017.0
20210919232253 56 148 0.0 0.0 0.00 0.00 0.00 90 1016.8
20210919231237 56 148 0.0 0.0 0.00 0.00 0.00 89 1016.9
20210919230246 57 148 0.0 0.0 0.00 0.00 0.00 89 1016.8
20210919225226 57 148 0.0 0.0 0.00 0.00 0.00 89 1016.8
20210919224227 57 148 0.0 0.0 0.00 0.00 0.00 89 1016.8
20210919223226 58 148 0.0 1.0 0.00 0.00 0.00 89 1016.7
20210919222249 58 148 0.0 0.0 0.00 0.00 0.00 89 1016.6
20210919221230 58 148 0.0 0.0 0.00 0.00 0.00 89 1016.6
20210919220241 58 148 0.0 1.0 0.00 0.00 0.00 89 1016.5
20210919215239 59 148 0.0 0.0 0.00 0.00 0.00 89 1016.4
20210919214239 59 148 0.0 0.0 0.00 0.00 0.00 89 1016.3
20210919213244 59 148 0.0 0.0 0.00 0.00 0.00 88 1016.3
20210919212256 59 148 0.0 0.0 0.00 0.00 0.00 87 1016.3
20210919211247 60 148 0.0 0.0 0.00 0.00 0.00 87 1016.2
20210919210229 60 148 0.0 0.0 0.00 0.00 0.00 87 1016.2
20210919205224 60 148 0.0 0.0 0.00 0.00 0.00 86 1016.1
20210919204226 61 148 0.0 0.0 0.00 0.00 0.00 85 1016.0
20210919203234 62 148 0.0 0.0 0.00 0.00 0.00 85 1016.0
20210919202246 62 148 0.0 0.0 0.00 0.00 0.00 84 1015.9
20210919201227 62 148 0.0 0.0 0.00 0.00 0.00 82 1015.9
20210919200236 63 148 0.0 0.0 0.00 0.00 0.00 81 1015.8
20210919195235 64 148 0.0 0.0 0.00 0.00 0.00 81 1015.7
20210919194234 64 148 0.0 0.0 0.00 0.00 0.00 80 1015.6
20210919193243 65 148 0.0 0.0 0.00 0.00 0.00 80 1015.5
20210919192255 65 148 0.0 0.0 0.00 0.00 0.00 79 1015.5
20210919191242 65 148 0.0 0.0 0.00 0.00 0.00 78 1015.4
20210919190245 66 148 0.0 0.0 0.00 0.00 0.00 77 1015.4
20210919185245 66 148 0.0 0.0 0.00 0.00 0.00 77 1015.2
20210919184226 66 148 0.0 0.0 0.00 0.00 0.00 76 1015.1
20210919183242 66 148 0.0 2.0 0.00 0.00 0.00 76 1015.1
20210919182305 66 57 0.0 4.0 0.00 0.00 0.00 77 1015.1
20210919181243 66 15 1.0 4.0 0.00 0.00 0.00 78 1015.0
20210919180245 67 126 0.0 0.0 0.00 0.00 0.00 78 1014.9
20210919175226 67 136 0.0 0.0 0.00 0.00 0.00 77 1014.9
20210919174246 68 136 0.0 0.0 0.00 0.00 0.00 76 1014.7
20210919173251 68 136 0.0 0.0 0.00 0.00 0.00 74 1014.6
20210919172253 69 136 0.0 0.0 0.00 0.00 0.00 72 1014.6
20210919171231 69 136 0.0 1.0 0.00 0.00 0.00 71 1014.6
20210919170240 69 136 0.0 2.0 0.00 0.00 0.00 71 1014.6
20210919165241 70 136 0.0 1.0 0.00 0.00 0.00 71 1014.6
20210919164241 70 136 0.0 0.0 0.00 0.00 0.00 70 1014.5
20210919163246 70 136 0.0 1.0 0.00 0.00 0.00 69 1014.5
20210919162300 70 136 0.0 1.0 0.00 0.00 0.00 70 1014.4
20210919161251 70 136 0.0 1.0 0.00 0.00 0.00 70 1014.4
20210919160231 70 136 0.0 1.0 0.00 0.00 0.00 70 1014.4
20210919155230 70 136 1.0 3.0 0.00 0.00 0.00 69 1014.4
20210919154239 71 114 0.0 2.0 0.00 0.00 0.00 67 1014.4
20210919153239 71 114 0.0 1.0 0.00 0.00 0.00 65 1014.4
20210919152247 70 114 0.0 0.0 0.00 0.00 0.00 68 1014.4
20210919151240 70 114 0.0 0.0 0.00 0.00 0.00 68 1014.3
20210919150240 70 114 0.0 2.0 0.00 0.00 0.00 67 1014.3
20210919145241 71 106 0.0 1.0 0.00 0.00 0.00 68 1014.2
20210919144251 71 106 0.0 1.0 0.00 0.00 0.00 67 1014.3
20210919143232 71 106 0.0 1.0 0.00 0.00 0.00 64 1014.2
20210919142245 71 106 0.0 1.0 0.00 0.00 0.00 68 1014.3
20210919141236 71 107 0.0 1.0 0.00 0.00 0.00 68 1014.2
20210919140233 71 107 0.0 1.0 0.00 0.00 0.00 66 1014.1
20210919135234 72 49 1.0 4.0 0.00 0.00 0.00 64 1014.2
20210919134242 73 41 0.0 3.0 0.00 0.00 0.00 63 1014.2
20210919133241 73 55 2.0 5.0 0.00 0.00 0.00 64 1014.1
20210919132253 73 71 1.0 3.0 0.00 0.00 0.00 65 1014.1
20210919131245 73 124 1.0 3.0 0.00 0.00 0.00 63 1014.1
20210919130242 72 109 1.0 3.0 0.00 0.00 0.00 65 1014.1
20210919125248 72 139 1.0 2.0 0.00 0.00 0.00 67 1014.2
20210919124227 72 54 2.0 4.0 0.00 0.00 0.00 66 1014.3
20210919123227 72 57 0.0 2.0 0.00 0.00 0.00 66 1014.3
20210919122248 72 59 1.0 2.0 0.00 0.00 0.00 66 1014.4
20210919121229 73 67 1.0 4.0 0.00 0.00 0.00 69 1014.4
20210919120229 71 5 1.0 3.0 0.00 0.00 0.00 69 1014.4
20210919115239 70 39 0.0 2.0 0.00 0.00 0.00 72 1014.5
20210919114232 70 38 1.0 2.0 0.00 0.00 0.00 72 1014.6
20210919113233 70 5 1.0 4.0 0.00 0.00 0.00 73 1014.6
20210919112251 69 52 1.0 3.0 0.00 0.00 0.00 73 1014.6
20210919111234 69 80 0.0 3.0 0.00 0.00 0.00 70 1014.5
20210919110235 70 80 0.0 2.0 0.00 0.00 0.00 72 1014.4
20210919105244 68 19 0.0 4.0 0.00 0.00 0.00 73 1014.4
20210919104244 68 46 1.0 3.0 0.00 0.00 0.00 72 1014.6
20210919103255 68 90 0.0 2.0 0.00 0.00 0.00 73 1014.7
20210919102246 68 87 0.0 3.0 0.00 0.00 0.00 75 1014.7
20210919101228 68 114 0.0 2.0 0.00 0.00 0.00 76 1014.6
20210919100238 67 61 0.0 4.0 0.00 0.00 0.00 78 1014.6
20210919095236 66 67 1.0 2.0 0.00 0.00 0.00 79 1014.5
20210919094236 65 135 0.0 1.0 0.00 0.00 0.00 80 1014.6
20210919093242 65 135 2.0 4.0 0.00 0.00 0.00 80 1014.7
20210919092251 65 145 0.0 2.0 0.00 0.00 0.00 82 1014.6
20210919091234 64 136 0.0 3.0 0.00 0.00 0.00 83 1014.6
20210919090242 64 143 0.0 2.0 0.00 0.00 0.00 84 1014.5
20210919085242 62 144 1.0 3.0 0.00 0.00 0.00 84 1014.5
20210919084242 62 141 0.0 4.0 0.00 0.00 0.00 86 1014.5
20210919083247 60 125 1.0 3.0 0.00 0.00 0.00 89 1014.4
20210919082259 59 111 0.0 2.0 0.00 0.00 0.00 90 1014.4
20210919081247 58 90 1.0 2.0 0.00 0.00 0.00 92 1014.3
20210919080226 57 93 0.0 1.0 0.00 0.00 0.00 93 1014.2
20210919075227 56 96 0.0 2.0 0.00 0.00 0.00 94 1014.2
20210919074228 56 67 0.0 0.0 0.00 0.00 0.00 94 1014.1
20210919073238 56 67 0.0 0.0 0.00 0.00 0.00 94 1014.2
20210919072251 55 67 0.0 0.0 0.00 0.00 0.00 94 1014.1
20210919071243 55 67 0.0 0.0 0.00 0.00 0.00 94 1014.0
20210919070239 55 67 0.0 0.0 0.00 0.00 0.00 94 1013.9
20210919065236 54 67 0.0 0.0 0.00 0.00 0.00 93 1013.8
20210919064245 54 67 0.0 0.0 0.00 0.00 0.00 93 1013.7
20210919063226 54 67 0.0 0.0 0.00 0.00 0.00 93 1013.8
20210919062307 54 67 0.0 0.0 0.00 0.00 0.00 93 1013.7
20210919061226 54 67 0.0 0.0 0.00 0.00 0.00 93 1013.5
20210919060227 54 69 0.0 0.0 0.00 0.00 0.00 93 1013.7
20210919055224 54 69 0.0 0.0 0.00 0.00 0.00 93 1013.7
20210919054228 53 69 0.0 0.0 0.00 0.00 0.00 93 1013.7
20210919053229 53 69 0.0 2.0 0.00 0.00 0.00 93 1013.6
20210919052310 53 57 0.0 2.0 0.00 0.00 0.00 93 1013.5
20210919051234 53 56 0.0 1.0 0.00 0.00 0.00 92 1013.6
20210919050235 53 57 0.0 1.0 0.00 0.00 0.00 92 1013.6
20210919045235 53 57 0.0 2.0 0.00 0.00 0.00 92 1013.5
20210919044241 54 56 0.0 2.0 0.00 0.00 0.00 92 1013.5
20210919043240 54 58 0.0 2.0 0.00 0.00 0.00 92 1013.5
20210919042305 54 58 0.0 1.0 0.00 0.00 0.00 92 1013.5
20210919041244 54 58 0.0 2.0 0.00 0.00 0.00 92 1013.4
20210919040239 54 57 0.0 2.0 0.00 0.00 0.00 92 1013.3
20210919035246 54 57 0.0 2.0 0.00 0.00 0.00 92 1013.4
20210919034226 55 55 0.0 1.0 0.00 0.00 0.00 92 1013.5
20210919033226 55 55 0.0 0.0 0.00 0.00 0.00 92 1013.4
20210919032247 55 55 0.0 1.0 0.00 0.00 0.00 92 1013.5
20210919031229 55 55 0.0 1.0 0.00 0.00 0.00 92 1013.4
20210919030242 55 55 0.0 0.0 0.00 0.00 0.00 91 1013.7
20210919025243 55 55 0.0 0.0 0.00 0.00 0.00 91 1013.7
20210919024248 55 55 0.0 0.0 0.00 0.00 0.00 91 1013.7
20210919023227 55 55 0.0 0.0 0.00 0.00 0.00 91 1013.8
20210919022306 55 55 0.0 0.0 0.00 0.00 0.00 91 1013.7
20210919021228 55 55 0.0 0.0 0.00 0.00 0.00 91 1013.9
20210919020229 55 55 0.0 0.0 0.00 0.00 0.00 90 1013.9
20210919015229 55 55 0.0 0.0 0.00 0.00 0.00 90 1013.9
20210919014237 56 55 0.0 0.0 0.00 0.00 0.00 90 1014.1
20210919013237 56 55 0.0 0.0 0.00 0.00 0.00 90 1014.1
20210919012257 56 55 0.0 0.0 0.00 0.00 0.00 90 1014.2
20210919011240 56 55 0.0 0.0 0.00 0.00 0.00 89 1014.1